Latest Weather Observations for Lady Elliot Island

IDQ60801

Issued at 6:02 pm EST Monday 21 August 2017 (issued every 30 minutes, with the page automatically refreshed every 10 minutes)

About weather observations | Map of weather stations | Latest weather observations for QLD | Other Formats
Station Details ID: 039059 Name: LADY ELLIOT ISLAND Lat: -24.11 Lon: 152.72 Height: 3.6 m
Data from the previous 72 hours. | See also: Recent months at Lady Elliot Island
Date/Time
EST
Temp
°C
App
Temp
°C
Dew
Point
°C
Rel
Hum
%
Delta-T
°C
Wind Press
QNH
hPa
Press
MSL
hPa
Rain since
9am
mm
Dir  Spd
km/h
Gust
km/h
Spd
kts
Gust
kts
21/06:00pm 20.0 18.0 13.9 68 3.5 ESE 17 20 9 11 1019.0 1019.0 0.0
21/05:30pm 20.0 17.7 14.1 69 3.4 ESE 19 24 10 13 1018.8 1018.8 0.0
21/05:00pm 20.0 17.7 14.6 71 3.1 SE 20 26 11 14 1018.6 1018.6 0.0
21/04:30pm 20.0 16.9 14.4 70 3.3 ESE 24 30 13 16 1018.5 1018.5 0.0
21/04:00pm 20.1 17.1 14.9 72 3.0 ESE 24 30 13 16 1018.6 1018.6 0.0
21/03:30pm 20.6 18.9 14.7 69 3.5 SE 17 24 9 13 1018.5 1018.5 0.0
21/03:00pm 21.2 19.3 15.3 69 3.5 SSE 19 24 10 13 1018.4 1018.4 0.0
21/02:30pm 21.5 19.6 15.1 67 3.8 SSE 19 26 10 14 1018.7 1018.7 0.0
21/02:00pm 21.3 19.6 14.7 66 3.9 SSE 17 22 9 12 1018.8 1018.8 0.0
21/01:30pm 21.2 19.3 15.1 68 3.6 SSE 19 24 10 13 1018.9 1018.9 0.0
21/01:00pm 19.6 17.8 15.5 77 2.4 SSE 19 26 10 14 1019.3 1019.3 0.0
21/12:30pm 21.2 19.1 15.3 69 3.5 SSE 20 30 11 16 1019.6 1019.6 0.0
21/12:00pm 21.7 19.2 14.1 62 4.4 SE 20 28 11 15 1019.9 1019.9 0.0
21/11:30am 22.3 19.9 15.4 65 4.1 SE 22 30 12 16 1020.3 1020.3 0.0
21/11:00am 21.3 19.3 14.9 67 3.8 SE 19 24 10 13 1020.6 1020.6 0.0
21/10:30am 21.7 19.6 15.1 66 3.9 SE 20 26 11 14 1020.9 1020.9 0.0
21/10:00am 20.5 17.7 14.2 67 3.6 SE 22 30 12 16 1020.9 1020.9 0.0
21/09:30am 20.6 18.3 14.7 69 3.5 SE 20 28 11 15 1020.9 1020.9 0.0
21/09:00am 20.6 18.4 14.9 70 3.3 SSE 20 30 11 16 1020.8 1020.8 0.0
21/08:30am 19.4 16.5 14.0 71 3.1 SSE 22 32 12 17 1020.7 1020.7 0.0
21/08:00am 19.1 16.0 13.5 70 3.2 SSE 22 30 12 16 1020.5 1020.5 0.0
21/07:30am 18.8 16.1 13.6 72 3.0 SSE 20 28 11 15 1020.3 1020.3 0.0
21/07:00am 18.7 15.8 12.9 69 3.3 SSE 20 33 11 18 1019.9 1019.9 0.0
21/06:30am 18.8 15.7 12.3 66 3.6 SSE 20 30 11 16 1019.6 1019.6 0.0
21/06:00am 18.9 15.7 11.9 64 3.9 SSE 20 32 11 17 1019.1 1019.1 0.0
21/05:30am 19.0 15.5 10.8 59 4.4 SSE 20 30 11 16 1018.8 1018.8 0.0
21/05:00am 18.8 15.5 11.6 63 3.9 SSE 20 32 11 17 1018.5 1018.5 0.0
21/04:30am 18.7 14.8 12.0 65 3.7 SE 24 32 13 17 1018.3 1018.3 0.0
21/04:00am 19.0 14.4 11.1 60 4.3 SE 26 39 14 21 1018.1 1018.1 0.0
21/03:30am 18.8 14.1 10.6 59 4.4 SE 26 33 14 18 1018.2 1018.2 0.0
21/03:00am 18.7 14.2 10.0 57 4.6 SE 24 32 13 17 1018.5 1018.5 0.0
21/02:30am 18.8 14.6 9.6 55 4.9 SE 22 33 12 18 1018.7 1018.7 0.0
21/02:00am 18.8 14.7 8.5 51 5.3 SSE 20 28 11 15 1018.9 1018.9 0.0
21/01:30am 18.9 14.0 8.3 50 5.5 SE 24 32 13 17 1019.0 1019.0 0.0
21/01:00am 18.7 13.9 8.7 52 5.2 SE 24 33 13 18 1019.2 1019.2 0.0
21/12:30am 18.6 14.6 9.1 54 5.0 SE 20 28 11 15 1019.3 1019.3 0.0
21/12:00am 18.5 14.8 10.1 58 4.5 SSE 20 28 11 15 1019.5 1019.5 0.0
 
Date/Time
EST
Temp
°C
App
Temp
°C
Dew
Point
°C
Rel
Hum
%
Delta-T
°C
Wind Press
QNH
hPa
Press
MSL
hPa
Rain since
9am
mm
Dir  Spd
km/h
Gust
km/h
Spd
kts
Gust
kts
20/11:30pm 18.6 14.3 9.4 55 4.8 SSE 22 30 12 16 1019.6 1019.6 0.0
20/11:00pm 18.7 13.7 9.5 55 4.8 SE 26 33 14 18 1019.7 1019.7 0.0
20/10:30pm 19.1 14.1 10.9 59 4.5 SE 28 37 15 20 1020.0 1020.0 0.0
20/10:00pm 18.6 14.5 8.8 53 5.1 SE 20 30 11 16 1020.2 1020.2 0.0
20/09:30pm 18.5 14.7 9.8 57 4.6 SSE 20 30 11 16 1020.2 1020.2 0.0
20/09:00pm 18.2 13.5 9.3 56 4.6 SSE 24 33 13 18 1020.3 1020.3 0.0
20/08:30pm 18.1 13.1 9.7 58 4.4 SE 26 32 14 17 1020.1 1020.1 0.0
20/08:00pm 18.0 14.1 10.9 63 3.8 SE 22 30 12 16 1019.9 1019.9 0.0
20/07:30pm 18.0 13.1 10.1 60 4.2 SE 26 35 14 19 1019.6 1019.6 0.0
20/07:00pm 18.1 13.6 10.2 60 4.2 SE 24 32 13 17 1019.3 1019.3 0.0
20/06:30pm 18.4 13.3 7.5 49 5.5 SE 24 37 13 20 1019.1 1019.1 0.0
20/06:00pm 18.2 13.8 7.6 50 5.4 SSE 20 32 11 17 1018.8 1018.8 0.0
20/05:30pm 18.3 14.4 8.6 53 5.0 SSE 19 28 10 15 1018.4 1018.4 0.0
20/05:00pm 18.5 13.8 7.9 50 5.4 SSE 22 32 12 17 1018.2 1018.2 0.0
20/04:30pm 18.8 14.2 8.2 50 5.5 SSE 22 32 12 17 1018.0 1018.0 0.0
20/04:00pm 19.1 14.8 7.8 48 5.8 S 20 28 11 15 1017.8 1017.8 0.0
20/03:30pm 19.3 15.2 7.7 47 5.9 S 19 30 10 16 1017.6 1017.6 0.0
20/03:00pm 19.1 14.5 6.6 44 6.2 SSE 20 30 11 16 1017.5 1017.5 0.0
20/02:30pm 19.2 14.3 7.0 45 6.2 S 22 32 12 17 1017.6 1017.6 0.0
20/02:00pm 19.4 14.9 6.8 44 6.3 S 20 30 11 16 1017.6 1017.6 0.0
20/01:30pm 19.3 15.2 8.6 50 5.6 S 20 28 11 15 1018.0 1018.0 0.0
20/01:00pm 19.2 14.7 8.5 50 5.5 S 22 35 12 19 1018.3 1018.3 0.0
20/12:30pm 18.9 14.1 8.8 52 5.3 S 24 37 13 20 1018.5 1018.5 0.0
20/12:00pm 18.3 13.0 8.3 52 5.1 S 26 39 14 21 1018.9 1018.9 0.0
20/11:30am 17.9 12.7 8.7 55 4.8 S 26 35 14 19 1019.4 1019.4 0.0
20/11:00am 17.9 12.9 8.2 53 4.9 S 24 35 13 19 1019.8 1019.8 0.0
20/10:30am 17.3 12.2 7.6 53 4.9 S 24 39 13 21 1019.9 1019.9 0.0
20/10:00am 16.9 11.5 6.4 50 5.1 S 24 35 13 19 1020.1 1020.1 0.0
20/09:30am 16.3 10.1 6.2 51 4.9 S 28 39 15 21 1020.2 1020.2 0.0
20/09:00am 15.8 9.4 5.4 50 4.9 S 28 39 15 21 1020.2 1020.2 0.0
20/08:30am 15.7 9.3 5.0 49 5.1 S 28 41 15 22 1020.0 1020.0 0.0
20/08:00am 15.2 8.6 4.0 47 5.1 S 28 37 15 20 1019.8 1019.8 0.0
20/07:30am 15.4 9.1 5.9 53 4.6 S 28 41 15 22 1019.6 1019.6 0.0
20/07:00am 14.8 6.8 3.9 48 5.0 SSW 35 50 19 27 1019.1 1019.1 0.0
20/06:30am 14.9 7.0 4.3 49 4.9 SSW 35 50 19 27 1018.6 1018.6 0.0
20/06:18am 14.8 6.6 4.8 51 4.7 SSW 37 56 20 30 1018.5 1018.5 0.0
20/06:00am 15.0 7.3 5.5 53 4.5 SSW 35 48 19 26 1018.3 1018.3 0.0
20/05:30am 14.8 6.8 3.9 48 5.0 SSW 35 52 19 28 1018.1 1018.1 0.0
20/05:27am 14.8 7.1 3.3 46 5.2 SSW 33 52 18 28 1018.1 1018.1 0.0
20/05:00am 14.9 6.1 3.7 47 5.1 SSW 39 54 21 29 1017.7 1017.7 0.0
20/04:30am 14.9 7.2 3.4 46 5.2 SSW 33 48 18 26 1017.5 1017.5 0.0
20/04:21am 14.9 7.8 3.4 46 5.2 SSW 30 48 16 26 1017.6 1017.6 0.0
20/04:00am 14.9 6.7 2.8 44 5.4 SSW 35 50 19 27 1017.5 1017.5 0.0
20/03:31am 15.2 6.9 2.4 42 5.7 SSW 35 54 19 29 1017.3 1017.3 0.0
20/03:30am 15.1 6.3 1.3 39 6.0 SSW 37 54 20 29 1017.4 1017.4 0.0
20/03:17am 15.1 6.8 2.3 42 5.7 SSW 35 54 19 29 1017.4 1017.4 0.0
20/03:00am 15.4 6.7 2.2 41 5.8 SSW 37 52 20 28 1017.4 1017.4 0.0
20/02:30am 15.4 6.8 2.6 42 5.7 SSW 37 57 20 31 1017.7 1017.7 0.0
20/02:00am 15.8 7.8 1.9 39 6.1 SSW 33 54 18 29 1017.7 1017.7 0.0
20/01:36am 16.0 7.1 1.0 36 6.5 SSW 37 56 20 30 1018.0 1018.0 0.0
20/01:30am 16.0 7.5 1.0 36 6.5 SSW 35 50 19 27 1018.1 1018.1 0.0
20/01:00am 16.3 7.5 1.6 37 6.5 SSW 37 56 20 30 1018.2 1018.2 0.0
20/12:39am 16.6 7.6 2.6 39 6.3 SSW 39 59 21 32 1018.1 1018.1 0.0
20/12:30am 16.7 8.0 2.3 38 6.5 SSW 37 54 20 29 1018.2 1018.2 0.0
20/12:07am 16.9 8.5 1.8 36 6.7 SSW 35 56 19 30 1018.5 1018.5 0.0
20/12:00am 17.0 9.0 3.7 41 6.2 SSW 35 50 19 27 1018.4 1018.4 0.0
 
Date/Time
EST
Temp
°C
App
Temp
°C
Dew
Point
°C
Rel
Hum
%
Delta-T
°C
Wind Press
QNH
hPa
Press
MSL
hPa
Rain since
9am
mm
Dir  Spd
km/h
Gust
km/h
Spd
kts
Gust
kts
19/11:30pm 17.3 9.7 2.9 38 6.6 SSW 32 52 17 28 1018.3 1018.3 0.0
19/11:06pm 17.6 8.7 2.8 37 6.8 SSW 39 57 21 31 1018.5 1018.5 0.0
19/11:00pm 17.8 8.9 3.3 38 6.7 SSW 39 54 21 29 1018.4 1018.4 0.0
19/10:30pm 18.0 9.9 3.1 37 6.9 SSW 35 54 19 29 1018.5 1018.5 0.0
19/10:00pm 18.3 10.2 3.4 37 6.9 SSW 35 54 19 29 1018.7 1018.7 0.0
19/09:49pm 18.5 10.4 3.2 36 7.1 SSW 35 54 19 29 1018.7 1018.7 0.0
19/09:30pm 18.8 9.5 3.0 35 7.3 SSW 41 54 22 29 1018.5 1018.5 0.0
19/09:02pm 19.3 11.8 4.3 37 7.2 SSW 33 54 18 29 1018.3 1018.3 0.0
19/09:00pm 19.2 11.8 4.2 37 7.1 SSW 32 46 17 25 1018.3 1018.3 0.0
19/08:50pm 19.4 12.0 4.0 36 7.3 SSW 32 52 17 28 1018.1 1018.1 0.0
19/08:30pm 19.7 11.7 3.8 35 7.6 SSW 35 50 19 27 1017.8 1017.8 0.0
19/08:00pm 20.0 12.9 3.3 33 7.9 SSW 30 48 16 26 1017.5 1017.5 0.0
19/07:33pm 20.4 13.1 2.3 30 8.4 SSW 30 50 16 27 1017.0 1017.0 0.0
19/07:30pm 20.3 13.3 1.7 29 8.5 SSW 28 41 15 22 1017.0 1017.0 0.0
19/07:00pm 20.4 14.2 4.4 35 7.7 SSW 26 41 14 22 1016.7 1016.7 0.0
19/06:30pm 20.5 14.8 2.8 31 8.3 SSW 22 35 12 19 1016.4 1016.4 0.0
19/06:00pm 20.8 14.8 3.5 32 8.2 SSW 24 39 13 21 1015.9 1015.9 0.0
19/05:30pm 20.7 14.2 4.7 35 7.8 SSW 28 37 15 20 1015.4 1015.4 0.0
19/05:00pm 21.2 15.9 5.1 35 7.9 SSW 22 32 12 17 1015.0 1015.0 0.0
19/04:30pm 21.5 16.5 4.6 33 8.3 SSW 20 30 11 16 1014.9 1014.9 0.0
19/04:00pm 21.8 16.3 3.9 31 8.6 SW 22 32 12 17 1014.6 1014.6 0.0
19/03:30pm 21.9 16.9 4.5 32 8.5 SW 20 30 11 16 1014.5 1014.5 0.0
19/03:00pm 21.6 16.2 4.7 33 8.3 SW 22 33 12 18 1014.4 1014.4 0.0
19/02:30pm 21.5 15.7 4.6 33 8.3 SW 24 35 13 19 1014.4 1014.4 0.0
19/02:00pm 21.6 15.1 4.7 33 8.3 SW 28 39 15 21 1014.5 1014.5 0.0
19/01:30pm 21.8 16.1 6.9 38 7.6 SW 26 39 14 21 1014.7 1014.7 0.0
19/01:00pm 20.6 15.4 5.4 37 7.5 SW 22 35 12 19 1015.2 1015.2 0.0
19/12:30pm 20.3 14.6 5.1 37 7.4 SW 24 39 13 21 1015.8 1015.8 0.0
19/12:00pm 20.1 13.7 5.4 38 7.2 SW 28 41 15 22 1016.2 1016.2 0.0
19/11:30am 19.2 12.6 4.2 37 7.2 SW 28 41 15 22 1016.8 1016.8 0.0
19/11:00am 19.3 12.6 5.7 41 6.7 SW 30 46 16 25 1017.2 1017.2 0.0
19/10:30am 18.7 11.7 6.2 44 6.2 SSW 32 48 17 26 1017.7 1017.7 0.0
19/10:21am 18.9 12.3 6.1 43 6.3 SSW 30 48 16 26 1017.9 1017.9 0.0
19/10:00am 18.1 11.2 4.7 41 6.4 SW 30 44 16 24 1018.4 1018.4 0.0
19/09:30am 18.2 11.2 5.8 44 6.1 SSW 32 48 17 26 1018.8 1018.8 0.0
19/09:00am 17.8 9.5 4.4 41 6.3 SSW 37 52 20 28 1018.9 1018.9 0.0
19/08:31am 17.9 10.0 4.1 40 6.5 SSW 35 54 19 29 1019.0 1019.0 0.0
19/08:30am 17.8 9.4 3.7 39 6.6 SSW 37 54 20 29 1019.0 1019.0 0.0
19/08:16am 18.0 10.3 5.2 43 6.2 SSW 35 54 19 29 1018.7 1018.7 0.0
19/08:00am 18.0 9.9 5.2 43 6.2 SSW 37 50 20 27 1018.9 1018.9 0.0
19/07:30am 17.9 9.2 4.1 40 6.5 SSW 39 52 21 28 1018.6 1018.6 0.0
19/07:00am 17.8 9.8 5.7 45 5.9 SSW 37 52 20 28 1018.3 1018.3 0.0
19/06:31am 17.8 9.9 4.4 41 6.4 SSW 35 54 19 29 1018.1 1018.1 0.0
19/06:30am 17.8 9.9 4.4 41 6.4 SSW 35 48 19 26 1018.1 1018.1 0.0
19/06:00am 18.3 10.0 6.2 45 6.0 SSW 39 54 21 29 1017.8 1017.8 0.0
19/05:32am 18.6 10.6 5.5 42 6.4 SSW 37 57 20 31 1017.5 1017.5 0.0
19/05:30am 18.5 10.3 4.7 40 6.6 SSW 37 50 20 27 1017.5 1017.5 0.0
19/05:00am 19.0 11.2 6.5 44 6.2 SSW 37 54 20 29 1017.3 1017.3 0.0
19/04:56am 19.0 10.9 5.1 40 6.7 SSW 37 56 20 30 1017.2 1017.2 0.0
19/04:30am 19.3 11.3 5.7 41 6.7 SSW 37 54 20 29 1016.8 1016.8 0.0
19/04:00am 19.8 11.8 5.8 40 6.9 SSW 37 48 20 26 1016.4 1016.4 0.0
19/03:38am 20.1 13.3 5.0 37 7.4 SSW 30 48 16 26 1016.3 1016.3 0.0
19/03:30am 20.2 13.0 5.8 39 7.1 SSW 33 50 18 27 1016.3 1016.3 0.0
19/03:00am 20.5 13.2 4.5 35 7.7 SSW 32 44 17 24 1016.1 1016.1 0.0
19/02:30am 21.0 13.8 5.0 35 7.9 SSW 32 41 17 22 1016.1 1016.1 0.0
19/02:00am 21.4 14.1 5.3 35 8.0 SSW 33 43 18 23 1016.1 1016.1 0.0
19/01:30am 21.6 15.7 7.4 40 7.3 SSW 28 39 15 21 1016.2 1016.2 0.0
19/01:00am 21.5 15.4 8.4 43 6.9 SSW 30 41 16 22 1016.4 1016.4 0.0
19/12:30am 22.1 15.7 7.1 38 7.7 SSW 30 41 16 22 1016.7 1016.7 0.0
19/12:00am 22.1 16.7 8.2 41 7.3 SSW 26 35 14 19 1016.7 1016.7 0.0
 
Date/Time
EST
Temp
°C
App
Temp
°C
Dew
Point
°C
Rel
Hum
%
Delta-T
°C
Wind Press
QNH
hPa
Press
MSL
hPa
Rain since
9am
mm
Dir  Spd
km/h
Gust
km/h
Spd
kts
Gust
kts
18/11:30pm 22.1 18.4 11.5 51 5.9 SSW 22 30 12 16 1016.7 1016.7 0.0
18/11:00pm 21.2 21.5 17.8 81 2.1 SW 13 17 7 9 1016.8 1016.8 0.0
18/10:30pm 21.5 21.8 18.7 84 1.8 WSW 15 20 8 11 1016.7 1016.7 0.0
18/10:00pm 21.6 22.6 19.5 88 1.3 WSW 13 19 7 10 1016.7 1016.7 0.0
18/09:30pm 21.7 23.0 19.4 87 1.5 W 11 17 6 9 1016.6 1016.6 0.0
18/09:00pm 21.8 22.7 19.2 85 1.6 W 13 17 7 9 1016.5 1016.5 0.0
18/08:30pm 22.0 22.8 19.0 83 1.9 WNW 13 19 7 10 1016.3 1016.3 0.0
18/08:00pm 22.0 21.8 17.6 76 2.7 WNW 15 19 8 10 1016.0 1016.0 0.0
18/07:30pm 22.3 22.2 17.0 72 3.2 NW 13 20 7 11 1015.6 1015.6 0.0
18/07:00pm 22.6 21.9 16.4 68 3.8 NNW 15 24 8 13 1015.1 1015.1 0.0
18/06:30pm 22.6 21.5 16.4 68 3.8 NNW 17 22 9 12 1014.6 1014.6 0.0

Other Formats:

Comma delimited format used in spreadsheet applications
http://www.bom.gov.au/fwo/IDQ60801/IDQ60801.94388.axf

JavaScript Object Notation format (JSON) in row-major order
http://www.bom.gov.au/fwo/IDQ60801/IDQ60801.94388.json